Time;durP1;ratioP1;P1;durP2;ratioP2;P2;SDS_P1;SDS_P2;PMS_P1;PMS_P2;Temp;Humidity;BMP_temperature;BMP_pressure;BME280_temperature;BME280_humidity;BME280_pressure;Samples;Min_cycle;Max_cycle;Signal;HPM_P1;HPM_P2
2021/05/23 00:05:10;;;;;;;2.20;1.48;;;14.60;97.20;;;;;;11881831;28;20685;-79
2021/05/23 00:11:02;;;;;;;4.05;1.20;;;14.50;97.20;;;;;;11909527;28;20053;-76
2021/05/23 00:16:49;;;;;;;5.55;1.55;;;14.50;96.80;;;;;;11923192;28;20155;-77
2021/05/23 00:22:36;;;;;;;3.53;1.55;;;14.30;96.80;;;;;;11918973;28;20050;-76
2021/05/23 00:28:25;;;;;;;3.92;1.50;;;14.30;96.90;;;;;;11900048;28;20050;-76
2021/05/23 00:34:13;;;;;;;7.47;1.70;;;14.30;97.30;;;;;;11927811;28;20049;-77
2021/05/23 00:39:59;;;;;;;5.22;1.42;;;14.30;97.00;;;;;;11915619;28;20485;-78
2021/05/23 00:45:49;;;;;;;2.08;1.33;;;14.20;96.80;;;;;;11902648;28;20049;-77
2021/05/23 00:51:35;;;;;;;2.35;1.48;;;14.20;97.10;;;;;;11906005;28;20053;-77
2021/05/23 00:57:21;;;;;;;3.58;1.67;;;14.30;97.10;;;;;;11893711;28;20050;-77
2021/05/23 01:03:43;;;;;;;4.82;1.60;;;14.40;96.90;;;;;;11896145;28;20517;-77
2021/05/23 01:09:30;;;;;;;7.00;1.60;;;14.40;97.10;;;;;;11862809;28;20069;-77
2021/05/23 01:15:16;;;;;;;3.53;1.30;;;14.30;97.20;;;;;;11884605;28;20057;-76
2021/05/23 01:21:06;;;;;;;2.75;1.10;;;14.40;97.90;;;;;;11883174;28;20780;-76
2021/05/23 01:26:54;;;;;;;3.40;1.50;;;14.40;97.90;;;;;;11897950;28;20863;-77
2021/05/23 01:32:43;;;;;;;7.22;1.90;;;14.50;98.20;;;;;;11889943;28;20049;-77
2021/05/23 01:38:31;;;;;;;2.58;1.38;;;14.50;98.00;;;;;;11923373;28;20049;-77
2021/05/23 01:44:19;;;;;;;7.13;1.60;;;14.60;98.30;;;;;;11894347;28;20068;-78
2021/05/23 01:50:06;;;;;;;3.17;1.30;;;14.60;98.40;;;;;;11916797;28;20061;-77
2021/05/23 01:55:52;;;;;;;7.38;1.92;;;14.60;98.80;;;;;;11915040;28;20057;-77
2021/05/23 06:16:07;;;;;;;5.50;1.80;;;11.70;99.90;;;;;;12142537;27;20389;-72
2021/05/23 06:21:53;;;;;;;8.23;2.17;;;12.30;99.90;;;;;;12141763;27;33732;-72
2021/05/23 06:27:40;;;;;;;5.63;1.77;;;12.80;99.90;;;;;;12149964;27;20047;-72
2021/05/23 06:33:27;;;;;;;5.82;1.92;;;13.10;99.90;;;;;;12166431;27;20852;-71
2021/05/23 06:39:13;;;;;;;5.18;1.50;;;13.20;99.90;;;;;;12145044;27;20062;-71
2021/05/23 06:45:00;;;;;;;5.30;1.67;;;13.50;99.90;;;;;;12143652;27;20058;-71
2021/05/23 06:50:50;;;;;;;7.30;2.03;;;13.60;99.90;;;;;;12142725;27;20051;-71
2021/05/23 07:34:08;;;;;;;6.18;2.00;;;13.40;99.90;;;;;;11957102;27;20358;-71
2021/05/23 07:39:56;;;;;;;6.05;1.80;;;13.80;99.90;;;;;;11982190;28;20049;-71
2021/05/23 07:45:45;;;;;;;8.43;1.83;;;14.50;99.90;;;;;;11996381;28;20048;-71
2021/05/23 07:51:32;;;;;;;7.72;1.88;;;14.70;99.90;;;;;;12008910;28;20044;-72
2021/05/23 07:57:19;;;;;;;10.63;2.25;;;14.90;99.90;;;;;;12006759;28;20057;-72
2021/05/23 08:03:05;;;;;;;6.45;2.58;;;15.30;99.90;;;;;;12009973;28;20052;-72
2021/05/23 08:08:53;;;;;;;8.23;1.50;;;15.30;99.90;;;;;;12003641;28;20389;-72
2021/05/23 08:14:39;;;;;;;6.40;1.95;;;15.30;99.90;;;;;;12000704;28;20415;-70
2021/05/23 08:20:26;;;;;;;7.57;2.30;;;15.10;99.90;;;;;;12000147;28;20411;-72
2021/05/23 08:26:13;;;;;;;9.57;2.50;;;15.10;99.90;;;;;;12004358;28;20063;-73
2021/05/23 08:32:00;;;;;;;7.43;1.67;;;15.20;99.60;;;;;;11997365;28;20045;-73
2021/05/23 08:37:46;;;;;;;10.15;2.03;;;15.30;99.30;;;;;;11997408;28;20053;-73
2021/05/23 08:43:34;;;;;;;11.27;1.52;;;15.20;98.20;;;;;;11990539;28;20048;-73
2021/05/23 08:49:22;;;;;;;4.82;1.40;;;15.10;96.80;;;;;;11958916;28;20044;-74
2021/05/23 08:55:09;;;;;;;10.15;2.00;;;15.20;97.70;;;;;;11977967;28;20053;-73
2021/05/23 09:00:57;;;;;;;6.43;1.60;;;15.30;96.60;;;;;;11879261;28;20123;-74
2021/05/23 09:06:44;;;;;;;13.18;1.48;;;15.30;95.60;;;;;;11949989;28;20063;-75
2021/05/23 09:12:30;;;;;;;8.38;1.48;;;15.60;95.20;;;;;;11955059;28;20411;-74
2021/05/23 09:18:17;;;;;;;7.15;1.77;;;15.50;94.10;;;;;;11949211;28;20048;-75
2021/05/23 09:24:07;;;;;;;5.57;1.40;;;15.60;94.00;;;;;;11932243;28;20057;-74
2021/05/23 09:30:06;;;;;;;4.97;1.30;;;15.60;93.60;;;;;;11963392;28;20060;-73
2021/05/23 09:35:54;;;;;;;8.48;1.52;;;15.90;93.10;;;;;;11962148;28;20053;-72
2021/05/23 09:41:41;;;;;;;3.70;1.08;;;15.80;92.20;;;;;;11971567;28;20061;-73
2021/05/23 09:47:27;;;;;;;5.20;1.60;;;16.10;92.50;;;;;;11989688;28;20096;-75
2021/05/23 09:53:20;;;;;;;8.60;1.75;;;16.40;91.40;;;;;;11986023;28;20851;-73
2021/05/23 09:59:18;;;;;;;9.85;1.38;;;16.70;90.80;;;;;;11993366;28;20090;-75
2021/05/23 10:05:07;;;;;;;10.73;1.30;;;16.60;89.10;;;;;;11994730;28;20056;-74
2021/05/23 10:10:55;;;;;;;3.35;1.13;;;16.50;89.70;;;;;;11995272;28;20134;-75
2021/05/23 10:16:42;;;;;;;5.55;1.23;;;16.30;89.80;;;;;;11990459;28;20058;-74
2021/05/23 10:22:32;;;;;;;5.82;1.27;;;16.30;90.20;;;;;;11952640;28;20064;-74
2021/05/23 10:28:20;;;;;;;3.80;1.55;;;16.60;88.30;;;;;;11986814;28;20056;-74
2021/05/23 10:34:07;;;;;;;5.28;1.02;;;16.60;88.30;;;;;;11993107;28;20048;-74
2021/05/23 10:39:54;;;;;;;7.05;1.58;;;17.10;84.50;;;;;;11984188;28;20049;-73
2021/05/23 10:45:42;;;;;;;4.88;1.48;;;16.90;82.80;;;;;;11990619;28;20076;-73
2021/05/23 10:51:29;;;;;;;8.40;2.15;;;16.80;84.50;;;;;;11982741;28;20041;-73
2021/05/23 10:57:18;;;;;;;4.63;1.40;;;17.10;83.70;;;;;;12013740;28;21518;-74
2021/05/23 11:03:12;;;;;;;3.72;1.23;;;17.00;83.40;;;;;;11981232;28;20103;-73
2021/05/23 11:09:06;;;;;;;7.35;1.80;;;17.20;82.60;;;;;;11992168;28;20063;-72
2021/05/23 11:15:13;;;;;;;4.47;0.90;;;17.30;81.40;;;;;;11978938;28;20063;-72
2021/05/23 11:21:03;;;;;;;8.73;2.10;;;17.30;81.90;;;;;;11996517;28;20052;-73
2021/05/23 11:26:50;;;;;;;5.85;1.52;;;17.40;80.50;;;;;;11994113;28;20053;-72
2021/05/23 11:32:36;;;;;;;4.75;0.90;;;17.20;80.80;;;;;;11993523;28;20053;-74
2021/05/23 11:38:33;;;;;;;12.23;3.13;;;17.40;78.80;;;;;;11988439;28;20052;-72
2021/05/23 11:44:20;;;;;;;6.68;2.33;;;17.70;78.50;;;;;;11991026;28;20420;-73
2021/05/23 11:50:07;;;;;;;5.40;1.40;;;18.10;76.80;;;;;;11984885;28;20055;-73
2021/05/23 11:55:54;;;;;;;11.70;6.07;;;18.40;75.10;;;;;;11985359;28;20927;-73
2021/05/23 12:01:47;;;;;;;4.07;1.70;;;18.20;75.00;;;;;;11990841;28;20087;-73
2021/05/23 12:07:37;;;;;;;2.92;0.90;;;18.40;76.70;;;;;;11988433;28;20075;-73
2021/05/23 12:13:36;;;;;;;5.43;0.90;;;18.80;72.10;;;;;;11984095;28;20555;-72
2021/05/23 12:19:44;;;;;;;4.68;1.00;;;19.00;74.50;;;;;;11993433;28;21061;-73
2021/05/23 12:25:32;;;;;;;2.75;0.80;;;19.40;73.10;;;;;;11994592;28;20072;-73
2021/05/23 12:31:20;;;;;;;4.00;1.00;;;19.40;69.80;;;;;;11996030;28;20094;-72
2021/05/23 12:37:07;;;;;;;23.70;9.05;;;19.40;69.60;;;;;;11995065;28;20439;-75
2021/05/23 12:43:08;;;;;;;6.72;2.00;;;19.20;70.20;;;;;;11998542;28;20048;-74
2021/05/23 12:48:55;;;;;;;6.30;2.20;;;18.90;72.30;;;;;;11997587;28;20059;-74
2021/05/23 12:54:42;;;;;;;4.50;1.30;;;18.90;73.70;;;;;;11995077;28;20057;-73
2021/05/23 13:00:29;;;;;;;5.22;1.20;;;18.70;71.50;;;;;;12000891;28;20060;-73
2021/05/23 13:06:17;;;;;;;3.88;1.13;;;18.90;73.10;;;;;;11996137;28;20426;-74
2021/05/23 13:12:06;;;;;;;7.63;1.02;;;19.40;72.00;;;;;;11995023;28;20057;-74
2021/05/23 13:17:54;;;;;;;2.97;0.70;;;19.60;72.40;;;;;;11991780;28;20045;-73
2021/05/23 13:23:42;;;;;;;7.15;0.93;;;19.60;68.80;;;;;;11994231;28;20519;-74
2021/05/23 13:29:29;;;;;;;6.88;1.73;;;19.70;70.10;;;;;;11996953;28;20052;-73
2021/05/23 13:35:16;;;;;;;5.88;1.20;;;19.60;69.00;;;;;;11991603;28;20056;-74
2021/05/23 13:41:04;;;;;;;4.63;0.93;;;19.50;72.60;;;;;;11995379;28;20045;-73
2021/05/23 13:46:50;;;;;;;7.13;1.20;;;19.70;67.70;;;;;;11994688;28;20561;-73
2021/05/23 13:52:37;;;;;;;8.27;1.08;;;19.10;68.50;;;;;;11993511;28;20492;-73
2021/05/23 13:58:24;;;;;;;3.72;1.15;;;19.20;68.40;;;;;;11994460;28;20052;-73
2021/05/23 14:04:11;;;;;;;2.75;0.75;;;19.70;67.20;;;;;;11992611;28;20037;-73
2021/05/23 14:09:57;;;;;;;3.08;0.82;;;20.00;65.70;;;;;;11997197;28;20048;-78
2021/05/23 14:15:45;;;;;;;5.10;1.00;;;19.90;66.00;;;;;;11997700;28;20059;-78
2021/05/23 14:21:32;;;;;;;3.13;0.70;;;19.40;64.90;;;;;;11996249;28;20488;-74
2021/05/23 14:27:19;;;;;;;0.57;0.43;;;19.40;65.30;;;;;;11993759;28;20060;-74
2021/05/23 14:33:06;;;;;;;4.57;0.52;;;19.50;65.90;;;;;;11993057;28;20056;-76
2021/05/23 14:38:55;;;;;;;2.78;2.25;;;19.40;65.70;;;;;;11992034;28;20056;-74
2021/05/23 14:44:41;;;;;;;1.42;0.50;;;19.30;65.40;;;;;;11993352;28;20060;-74
2021/05/23 14:50:30;;;;;;;2.50;0.70;;;19.40;64.10;;;;;;11995912;28;20053;-75
2021/05/23 14:56:17;;;;;;;1.00;0.60;;;19.80;63.80;;;;;;11991653;28;20053;-75
2021/05/23 15:02:03;;;;;;;3.03;0.75;;;20.10;64.50;;;;;;11992707;28;20466;-75
2021/05/23 15:07:52;;;;;;;5.07;0.70;;;20.40;62.60;;;;;;11991794;28;20463;-75
2021/05/23 15:13:38;;;;;;;2.47;0.65;;;20.10;64.60;;;;;;11993617;28;20055;-75
2021/05/23 15:19:25;;;;;;;4.00;0.88;;;20.60;63.20;;;;;;11993097;28;20048;-75
2021/05/23 15:25:12;;;;;;;1.30;0.57;;;21.10;63.30;;;;;;11991369;28;20049;-74
2021/05/23 15:31:13;;;;;;;2.80;0.93;;;21.20;60.60;;;;;;11992479;28;20101;-75
2021/05/23 15:37:00;;;;;;;3.03;0.98;;;20.80;60.40;;;;;;11988284;28;20095;-74
2021/05/23 15:42:47;;;;;;;3.30;0.73;;;19.80;61.50;;;;;;11992938;28;20041;-74
2021/05/23 15:48:34;;;;;;;1.35;0.60;;;19.20;62.30;;;;;;11991690;28;20041;-74
2021/05/23 15:54:20;;;;;;;2.42;0.43;;;19.10;64.20;;;;;;11998583;28;20583;-75
2021/05/23 16:00:09;;;;;;;2.30;0.75;;;19.40;63.70;;;;;;11999240;28;20041;-74
2021/05/23 16:05:56;;;;;;;2.47;0.60;;;19.70;63.00;;;;;;12001176;28;20100;-74
2021/05/23 16:11:42;;;;;;;1.90;0.60;;;20.70;62.50;;;;;;11997783;28;20075;-75
2021/05/23 16:17:29;;;;;;;2.17;0.73;;;22.80;56.80;;;;;;11998630;28;20060;-74
2021/05/23 16:23:16;;;;;;;1.35;0.63;;;24.50;53.50;;;;;;11998992;28;20490;-74
2021/05/23 16:29:03;;;;;;;3.67;0.73;;;23.50;53.70;;;;;;11995765;28;20057;-74
2021/05/23 16:34:50;;;;;;;1.05;0.60;;;23.30;54.30;;;;;;11997910;28;20036;-73
2021/05/23 16:40:37;;;;;;;1.02;0.38;;;22.60;56.80;;;;;;11996838;28;20056;-74
2021/05/23 16:46:23;;;;;;;1.42;0.75;;;22.00;57.80;;;;;;11999975;28;20056;-74
2021/05/23 16:52:10;;;;;;;2.38;0.73;;;21.60;58.70;;;;;;12001758;28;20111;-74
2021/05/23 16:57:57;;;;;;;2.60;1.10;;;20.90;59.20;;;;;;11997435;28;20049;-75
2021/05/23 17:03:43;;;;;;;4.00;0.85;;;20.90;58.30;;;;;;11998932;28;20061;-75
2021/05/23 17:09:30;;;;;;;1.35;0.40;;;21.10;58.70;;;;;;11998759;28;20447;-74
2021/05/23 17:15:19;;;;;;;1.20;0.43;;;25.50;51.40;;;;;;12000651;28;20064;-75
2021/05/23 17:21:06;;;;;;;1.77;0.75;;;29.20;45.20;;;;;;11992262;28;20582;-74
2021/05/23 17:26:55;;;;;;;1.15;0.60;;;27.50;44.60;;;;;;12000211;28;20053;-75
2021/05/23 17:32:44;;;;;;;0.63;0.60;;;26.00;46.40;;;;;;12000334;28;20114;-74
2021/05/23 17:38:30;;;;;;;2.35;0.60;;;28.50;42.70;;;;;;11992325;28;20119;-75
2021/05/23 17:44:18;;;;;;;3.33;0.60;;;30.70;39.10;;;;;;11992780;28;20049;-75
2021/05/23 17:50:06;;;;;;;1.90;0.50;;;27.50;42.30;;;;;;11993042;28;20059;-74
2021/05/23 17:55:52;;;;;;;6.75;0.45;;;24.70;47.50;;;;;;11993352;28;20065;-74
2021/05/23 18:01:39;;;;;;;1.77;0.50;;;23.10;50.20;;;;;;11990761;28;20057;-73
2021/05/23 18:07:26;;;;;;;1.73;0.52;;;21.90;52.50;;;;;;11998914;28;20057;-80
2021/05/23 18:13:13;;;;;;;0.32;0.30;;;21.30;54.30;;;;;;11999402;28;20050;-79
2021/05/23 18:19:03;;;;;;;314.40;213.13;;;20.80;55.60;;;;;;11997260;28;20119;-79
2021/05/23 18:24:49;;;;;;;2.55;0.73;;;20.60;58.30;;;;;;11984694;28;20542;-76
2021/05/23 18:30:36;;;;;;;3.13;0.80;;;20.20;62.10;;;;;;11991995;28;20127;-78
2021/05/23 18:36:27;;;;;;;3.70;0.80;;;20.20;64.20;;;;;;11995756;28;20049;-78
2021/05/23 18:42:17;;;;;;;3.75;0.80;;;20.00;66.20;;;;;;11969602;28;20053;-78
2021/05/23 18:48:05;;;;;;;3.55;0.85;;;19.80;67.30;;;;;;11992002;28;20187;-78
2021/05/23 18:53:53;;;;;;;2.25;0.77;;;19.70;68.20;;;;;;11997620;28;20052;-78
2021/05/23 18:59:40;;;;;;;2.15;0.90;;;19.60;68.40;;;;;;11996066;28;20052;-78
2021/05/23 19:05:27;;;;;;;10.25;4.85;;;19.50;68.50;;;;;;11993058;28;20053;-78
2021/05/23 19:11:14;;;;;;;1.73;0.82;;;19.40;68.60;;;;;;11988237;28;20588;-77
2021/05/23 19:17:00;;;;;;;2.40;1.10;;;19.30;69.00;;;;;;11996158;28;20057;-78
2021/05/23 19:22:47;;;;;;;4.88;0.85;;;19.20;69.40;;;;;;11993504;28;20909;-78
2021/05/23 19:28:34;;;;;;;3.35;1.00;;;19.10;69.90;;;;;;11992095;28;20045;-78
2021/05/23 19:34:25;;;;;;;5.22;1.27;;;19.00;70.70;;;;;;11993458;28;20052;-78
2021/05/23 19:40:14;;;;;;;3.40;0.88;;;19.00;71.30;;;;;;11997201;28;20195;-77
2021/05/23 19:46:02;;;;;;;4.43;1.15;;;19.00;72.20;;;;;;11989960;28;20102;-78
2021/05/23 19:51:55;;;;;;;16.40;8.50;;;19.00;72.60;;;;;;11991171;28;21293;-78
2021/05/23 19:57:44;;;;;;;2.55;1.17;;;19.00;73.10;;;;;;11995893;28;20098;-78
2021/05/23 20:03:31;;;;;;;4.53;1.42;;;19.00;73.30;;;;;;11996714;28;20053;-78
2021/05/23 20:09:18;;;;;;;3.05;1.20;;;18.90;73.90;;;;;;11994979;28;20458;-77
2021/05/23 20:15:06;;;;;;;3.70;1.40;;;18.90;74.30;;;;;;11994396;28;20049;-78
2021/05/23 20:20:54;;;;;;;2.35;0.70;;;18.90;75.30;;;;;;11990855;28;20127;-78
2021/05/23 20:26:41;;;;;;;3.05;1.00;;;18.80;76.60;;;;;;11998120;28;20102;-78
2021/05/23 20:32:27;;;;;;;5.30;1.00;;;18.70;77.20;;;;;;11993099;28;20053;-78
2021/05/23 20:38:14;;;;;;;4.28;0.98;;;18.70;77.80;;;;;;11999205;28;20056;-78
2021/05/23 20:44:01;;;;;;;4.10;0.70;;;18.70;78.00;;;;;;11998298;28;20064;-78
2021/05/23 20:49:48;;;;;;;1.48;0.90;;;18.70;78.20;;;;;;12001100;28;20049;-79
2021/05/23 20:55:35;;;;;;;2.55;1.10;;;18.70;77.90;;;;;;12001804;28;20048;-78
2021/05/23 21:01:25;;;;;;;3.35;0.70;;;18.70;78.00;;;;;;12003175;28;20049;-78
2021/05/23 21:07:11;;;;;;;3.33;1.02;;;18.60;75.90;;;;;;12004788;28;20053;-78
2021/05/23 21:12:59;;;;;;;1.70;0.80;;;18.60;75.50;;;;;;12001614;28;20546;-79
2021/05/23 21:18:45;;;;;;;4.35;0.80;;;18.50;75.30;;;;;;11999853;28;20079;-79
2021/05/23 21:24:32;;;;;;;1.30;0.70;;;18.50;74.40;;;;;;11997792;28;20049;-79
2021/05/23 21:30:20;;;;;;;3.45;0.70;;;18.40;74.00;;;;;;12000136;28;20048;-79
2021/05/23 21:36:07;;;;;;;2.67;0.60;;;18.30;72.30;;;;;;11999753;28;20055;-79
2021/05/23 21:41:53;;;;;;;5.55;1.20;;;18.40;73.00;;;;;;11999308;28;20056;-78
2021/05/23 21:47:41;;;;;;;2.17;0.73;;;18.40;71.70;;;;;;12003813;28;20067;-79
2021/05/23 21:53:27;;;;;;;3.47;0.65;;;18.30;70.70;;;;;;12012306;28;20057;-77
2021/05/23 21:59:14;;;;;;;4.82;0.95;;;18.30;70.80;;;;;;12015734;28;20056;-78
2021/05/23 22:05:01;;;;;;;7.85;1.50;;;18.00;70.80;;;;;;12002410;28;20049;-78
2021/05/23 22:10:48;;;;;;;2.92;0.85;;;18.00;71.30;;;;;;11999142;28;20063;-78
2021/05/23 22:16:34;;;;;;;5.63;0.90;;;18.10;70.90;;;;;;12000026;28;20064;-78
2021/05/23 22:22:22;;;;;;;3.78;0.90;;;18.10;70.50;;;;;;11996812;28;20041;-78
2021/05/23 22:28:09;;;;;;;1.80;0.70;;;18.10;70.30;;;;;;11995752;28;20053;-77
2021/05/23 22:33:56;;;;;;;2.03;0.60;;;18.00;70.20;;;;;;11998126;28;20064;-78
2021/05/23 22:39:43;;;;;;;1.80;0.75;;;18.00;70.00;;;;;;11992899;28;20053;-78
2021/05/23 22:45:29;;;;;;;4.90;0.98;;;18.00;70.90;;;;;;11995054;28;20106;-78
2021/05/23 22:51:16;;;;;;;4.60;0.88;;;17.90;70.90;;;;;;11993500;28;20607;-78
2021/05/23 22:57:05;;;;;;;2.67;0.88;;;17.90;71.80;;;;;;11993728;28;22674;-78
2021/05/23 23:02:56;;;;;;;4.10;0.85;;;17.90;71.70;;;;;;11992515;28;20303;-78
2021/05/23 23:08:43;;;;;;;2.60;0.73;;;17.70;72.10;;;;;;11994535;28;20060;-78
2021/05/23 23:14:31;;;;;;;6.03;1.35;;;17.70;72.20;;;;;;11995178;28;20048;-78
2021/05/23 23:20:17;;;;;;;3.50;0.80;;;17.70;72.70;;;;;;11992472;28;20049;-78
2021/05/23 23:26:04;;;;;;;2.50;0.75;;;17.70;72.90;;;;;;11992654;28;20558;-78
2021/05/23 23:31:51;;;;;;;4.63;0.98;;;17.70;72.90;;;;;;11991339;28;20079;-78
2021/05/23 23:37:37;;;;;;;2.75;0.98;;;17.30;73.20;;;;;;11996133;28;20049;-78
2021/05/23 23:43:24;;;;;;;4.30;0.80;;;17.10;74.00;;;;;;11997282;28;20047;-78
2021/05/23 23:49:11;;;;;;;3.42;1.33;;;16.90;74.60;;;;;;11998738;28;20057;-78
2021/05/23 23:54:57;;;;;;;2.90;0.85;;;16.80;75.80;;;;;;11993128;28;20056;-77
